Kezdőlap
METAR-TAF:

METAR-TAF

Repülőterek :

Belgorod, Oroszország

földrajzi szélesség: 50-38-36N, földrajzi hosszúság: 036-35-24E, magasság: 224 m

Jelenlegi meteorológiai megfigyelések

A jelentés 31 perccel ezelõtt készült, 13:00 UTC
Kelet-északkeleti szél 14 kt
Hőmérséklet 0°C
Páratartalom 34%
Légköri nyomás 1037 hPa
Látótávolság 10 km, vagy több
felhőtlen 1500 m magasságban, és nincs gomolyfelhõ

METAR: UUOB 161300Z 06007MPS CAVOK 00/M14 Q1037 R11/010060 NOSIG

Idő: 16:31 (13:31 UTC)

Előrejelzés

A jelentés 2 órával és 31 perccel ezelõtt készült, 11:00 UTC
Az előrejelzés 16-én 12 óra UTC és 16-én 21 óra UTC között érvényes
Északkeleti szél 14 kt széllökések: 23 kt
Látótávolság 10 km, vagy több
felhőtlen 1500 m magasságban, és nincs gomolyfelhõ

TAF: UUOB 161100Z 1612/1621 05007G12MPS CAVOK

Meteorológiai megfigyelések és előrejelzések több, mint 4000 repülőtéren (METAR és TAF jelentéseket).

A térképen piros és sárga pontok jelzik az elérhető meteorológiai állomásokat.

Mozgassa az egeret a pont fölött, hogy megjelenjen az állomás neve.

Azután kattintson az időjárási megfigyelések és előrejelzések megtekintéséhez.

A térkép megváltoztatása: kattintson a fekete keresztel jelölt zöld gombra ráközelítéshez, a vonallal jelölt zöld gombra távolításhoz, vagy a zöld nyilakra a szomszédos térképek eléréséhez.


METAR-TAF: